Time;durP1;ratioP1;P1;durP2;ratioP2;P2;SDS_P1;SDS_P2;PMS_P1;PMS_P2;Temp;Humidity;BMP_temperature;BMP_pressure;BME280_temperature;BME280_humidity;BME280_pressure;Samples;Min_cycle;Max_cycle;Signal;HPM_P1;HPM_P2
2024/01/28 00:01:14;;;;;;;;;;;15.10;62.20;;;;;;6275803;22;19989;-70
2024/01/28 00:03:40;;;;;;;;;;;15.00;62.60;;;;;;6275340;22;20416;-70
2024/01/28 00:06:05;;;;;;;;;;;15.00;62.60;;;;;;6275396;22;19920;-70
2024/01/28 00:08:31;;;;;;;;;;;15.10;62.30;;;;;;6248145;22;19904;-70
2024/01/28 00:10:56;;;;;;;;;;;15.00;62.50;;;;;;6276076;22;19931;-70
2024/01/28 00:13:24;;;;;;;;;;;15.00;62.80;;;;;;6276351;22;19903;-70
2024/01/28 00:15:52;;;;;;;;;;;14.90;62.60;;;;;;6277290;22;20407;-70
2024/01/28 00:18:18;;;;;;;;;;;15.00;62.70;;;;;;6277730;22;19956;-70
2024/01/28 00:20:43;;;;;;;;;;;15.00;62.80;;;;;;6277286;22;19907;-70
2024/01/28 00:23:09;;;;;;;;;;;15.00;62.10;;;;;;6277680;22;19989;-70
2024/01/28 00:25:34;;;;;;;;;;;15.00;62.30;;;;;;6277116;22;20032;-70
2024/01/28 00:28:00;;;;;;;;;;;15.00;62.10;;;;;;6277280;22;19910;-70
2024/01/28 00:30:30;;;;;;;;;;;15.10;62.20;;;;;;6277178;22;19915;-70
2024/01/28 00:32:55;;;;;;;;;;;14.90;62.40;;;;;;6277234;22;19911;-70
2024/01/28 00:35:21;;;;;;;;;;;14.90;62.50;;;;;;6277197;22;19903;-75
2024/01/28 00:37:46;;;;;;;;;;;14.90;62.30;;;;;;6277260;22;19934;-75
2024/01/28 00:40:12;;;;;;;;;;;14.90;62.50;;;;;;6277767;22;19903;-75
2024/01/28 00:42:38;;;;;;;;;;;14.90;61.70;;;;;;6277334;22;20237;-75
2024/01/28 00:45:04;;;;;;;;;;;14.90;62.50;;;;;;6277311;22;19911;-75
2024/01/28 00:47:30;;;;;;;;;;;14.90;61.40;;;;;;6277130;22;19903;-75
2024/01/28 00:49:56;;;;;;;;;;;14.80;62.50;;;;;;6277672;22;19910;-75
2024/01/28 00:52:22;;;;;;;;;;;14.90;62.50;;;;;;6278078;22;20273;-75
2024/01/28 00:54:48;;;;;;;;;;;14.90;62.60;;;;;;6277400;22;19911;-75
2024/01/28 00:57:14;;;;;;;;;;;16.10;63.70;;;;;;6277600;22;19904;-75
2024/01/28 00:59:40;;;;;;;;;;;14.90;62.50;;;;;;6277497;22;19903;-75
2024/01/28 01:02:06;;;;;;;;;;;14.60;61.60;;;;;;6277585;22;19907;-70
2024/01/28 01:04:32;;;;;;;;;;;14.90;62.60;;;;;;6277273;22;19987;-70
2024/01/28 01:06:58;;;;;;;;;;;14.90;62.40;;;;;;6276868;22;19923;-70
2024/01/28 01:09:24;;;;;;;;;;;14.80;62.50;;;;;;6276922;22;19903;-70
2024/01/28 01:11:50;;;;;;;;;;;14.80;62.30;;;;;;6276814;22;19909;-70
2024/01/28 01:14:15;;;;;;;;;;;14.80;62.40;;;;;;6276777;22;19947;-70
2024/01/28 01:16:41;;;;;;;;;;;14.80;62.50;;;;;;6276785;22;19909;-70
2024/01/28 01:19:06;;;;;;;;;;;14.70;62.50;;;;;;6277202;22;19956;-70
2024/01/28 01:21:32;;;;;;;;;;;14.80;62.50;;;;;;6276633;22;19929;-70
2024/01/28 01:23:57;;;;;;;;;;;14.80;62.40;;;;;;6276421;22;19919;-70
2024/01/28 01:26:22;;;;;;;;;;;14.80;62.50;;;;;;6276634;22;19949;-70
2024/01/28 01:28:48;;;;;;;;;;;14.80;62.40;;;;;;6276579;22;19978;-70
2024/01/28 01:31:13;;;;;;;;;;;14.70;62.40;;;;;;6276876;22;19910;-70
2024/01/28 01:33:39;;;;;;;;;;;15.10;62.60;;;;;;6276509;22;19911;-70
2024/01/28 01:36:05;;;;;;;;;;;14.70;62.50;;;;;;6276586;22;20235;-70
2024/01/28 01:38:30;;;;;;;;;;;14.80;61.70;;;;;;6276512;22;19907;-70
2024/01/28 01:40:56;;;;;;;;;;;14.70;62.20;;;;;;6276635;22;19931;-70
2024/01/28 01:43:21;;;;;;;;;;;14.70;62.50;;;;;;6276394;22;20291;-70
2024/01/28 01:45:47;;;;;;;;;;;14.60;62.30;;;;;;6276449;22;19907;-70
2024/01/28 01:48:13;;;;;;;;;;;15.00;62.20;;;;;;6224785;22;19903;-75
2024/01/28 01:50:39;;;;;;;;;;;14.60;62.40;;;;;;6276497;22;20247;-75
2024/01/28 01:53:05;;;;;;;;;;;14.60;62.50;;;;;;6276451;22;20110;-75
2024/01/28 01:55:34;;;;;;;;;;;14.70;62.60;;;;;;6277137;22;19918;-75
2024/01/28 01:58:00;;;;;;;;;;;14.60;62.40;;;;;;6276486;22;20314;-75
2024/01/28 02:00:26;;;;;;;;;;;14.60;62.20;;;;;;6276513;22;19914;-75
2024/01/28 02:02:51;;;;;;;;;;;14.60;62.00;;;;;;6276675;22;19910;-75
2024/01/28 02:05:17;;;;;;;;;;;14.40;62.30;;;;;;6276162;22;19903;-75
2024/01/28 02:07:42;;;;;;;;;;;15.00;62.50;;;;;;6276293;22;19903;-75
2024/01/28 02:10:09;;;;;;;;;;;14.50;62.20;;;;;;6276367;22;20251;-75
2024/01/28 02:12:35;;;;;;;;;;;14.50;61.20;;;;;;6276739;22;19905;-75
2024/01/28 02:15:04;;;;;;;;;;;14.60;62.30;;;;;;6276119;22;19910;-75
2024/01/28 02:17:30;;;;;;;;;;;14.50;57.80;;;;;;6276790;22;20404;-75
2024/01/28 02:19:55;;;;;;;;;;;14.60;61.90;;;;;;6276252;22;19907;-75
2024/01/28 02:22:21;;;;;;;;;;;14.40;62.20;;;;;;6276144;22;19910;-75
2024/01/28 02:24:46;;;;;;;;;;;14.60;62.40;;;;;;6275938;22;19912;-75
2024/01/28 02:27:12;;;;;;;;;;;14.40;62.30;;;;;;6276184;22;19919;-75
2024/01/28 02:29:37;;;;;;;;;;;14.50;62.10;;;;;;6276176;22;20496;-75
2024/01/28 02:32:03;;;;;;;;;;;14.50;62.40;;;;;;6275978;22;19903;-75
2024/01/28 02:34:29;;;;;;;;;;;14.40;61.30;;;;;;6276061;22;19934;-75
2024/01/28 02:36:54;;;;;;;;;;;14.40;62.30;;;;;;6275506;22;19907;-75
2024/01/28 02:39:20;;;;;;;;;;;14.40;62.10;;;;;;6276273;22;20319;-75
2024/01/28 02:41:46;;;;;;;;;;;14.70;62.30;;;;;;6276290;22;19935;-75
2024/01/28 02:44:15;;;;;;;;;;;14.30;62.30;;;;;;6276525;22;19912;-76
2024/01/28 02:46:41;;;;;;;;;;;14.80;58.40;;;;;;6276610;22;19911;-71
2024/01/28 02:49:07;;;;;;;;;;;14.40;62.40;;;;;;6276377;22;19904;-70
2024/01/28 02:51:33;;;;;;;;;;;14.40;62.10;;;;;;6276101;22;20238;-70
2024/01/28 02:53:59;;;;;;;;;;;14.40;62.30;;;;;;6275908;22;19907;-70
2024/01/28 02:56:25;;;;;;;;;;;14.40;62.40;;;;;;6276514;22;19907;-70
2024/01/28 02:58:51;;;;;;;;;;;14.40;62.40;;;;;;6276459;22;20276;-70
2024/01/28 03:01:17;;;;;;;;;;;14.40;61.90;;;;;;6275898;22;19935;-70
2024/01/28 03:03:43;;;;;;;;;;;14.30;62.40;;;;;;6276260;22;19975;-70
2024/01/28 03:06:10;;;;;;;;;;;14.40;62.80;;;;;;6275972;22;19961;-70
2024/01/28 03:08:36;;;;;;;;;;;14.50;62.70;;;;;;6275691;22;20030;-70
2024/01/28 03:11:02;;;;;;;;;;;14.40;62.60;;;;;;6276234;22;19911;-70
2024/01/28 03:13:27;;;;;;;;;;;14.30;62.40;;;;;;6276961;22;20242;-70
2024/01/28 03:15:54;;;;;;;;;;;14.40;62.40;;;;;;6276333;22;19904;-70
2024/01/28 03:18:21;;;;;;;;;;;14.40;62.60;;;;;;6276123;22;19926;-70
2024/01/28 03:20:47;;;;;;;;;;;14.40;62.70;;;;;;6276227;22;19903;-70
2024/01/28 03:23:14;;;;;;;;;;;14.40;62.50;;;;;;6275426;22;20040;-70
2024/01/28 03:25:39;;;;;;;;;;;14.30;62.50;;;;;;6275811;22;19953;-75
2024/01/28 03:28:06;;;;;;;;;;;14.30;62.80;;;;;;6275420;22;19916;-75
2024/01/28 03:30:31;;;;;;;;;;;14.30;62.10;;;;;;6248340;22;19926;-75
2024/01/28 03:32:58;;;;;;;;;;;14.30;62.60;;;;;;6275571;22;20212;-75
2024/01/28 03:35:24;;;;;;;;;;;14.30;62.60;;;;;;6275670;22;19903;-75
2024/01/28 03:37:49;;;;;;;;;;;14.30;62.60;;;;;;6275497;22;19910;-75
2024/01/28 03:40:15;;;;;;;;;;;14.30;62.40;;;;;;6275408;22;19930;-75
2024/01/28 03:42:40;;;;;;;;;;;14.30;61.80;;;;;;6276024;22;19930;-75
2024/01/28 03:45:06;;;;;;;;;;;14.20;62.50;;;;;;6275240;22;19949;-75
2024/01/28 03:47:32;;;;;;;;;;;14.30;60.70;;;;;;6276648;22;19903;-75
2024/01/28 03:49:57;;;;;;;;;;;14.20;62.50;;;;;;6277554;22;19911;-75
2024/01/28 03:52:23;;;;;;;;;;;14.20;62.40;;;;;;6277426;22;19954;-75
2024/01/28 03:54:49;;;;;;;;;;;14.40;62.60;;;;;;6277544;22;19903;-75
2024/01/28 03:57:14;;;;;;;;;;;14.20;62.10;;;;;;6250138;22;20308;-74
2024/01/28 03:59:40;;;;;;;;;;;14.20;62.50;;;;;;6277450;22;19931;-75
2024/01/28 04:02:07;;;;;;;;;;;14.20;62.30;;;;;;6278000;22;19907;-75
2024/01/28 04:04:33;;;;;;;;;;;14.40;63.40;;;;;;6277486;22;19915;-75
2024/01/28 04:06:58;;;;;;;;;;;14.10;62.70;;;;;;6277120;22;19951;-75
2024/01/28 04:09:24;;;;;;;;;;;14.20;62.60;;;;;;6277316;22;19949;-75
2024/01/28 04:11:50;;;;;;;;;;;14.10;62.40;;;;;;6278660;22;19903;-75
2024/01/28 04:14:15;;;;;;;;;;;14.30;62.40;;;;;;6277344;22;19930;-75
2024/01/28 04:16:41;;;;;;;;;;;14.00;62.40;;;;;;6277381;22;19910;-75
2024/01/28 04:19:06;;;;;;;;;;;14.10;62.50;;;;;;6277078;22;19942;-75
2024/01/28 04:21:32;;;;;;;;;;;14.10;62.70;;;;;;6277217;22;19907;-75
2024/01/28 04:23:58;;;;;;;;;;;14.10;62.70;;;;;;6277004;22;19933;-75
2024/01/28 04:26:23;;;;;;;;;;;14.10;62.70;;;;;;6276939;22;19986;-75
2024/01/28 04:28:49;;;;;;;;;;;14.10;62.40;;;;;;6276916;22;19910;-75
2024/01/28 04:31:15;;;;;;;;;;;14.10;62.60;;;;;;6276945;22;20265;-75
2024/01/28 04:33:41;;;;;;;;;;;14.00;62.30;;;;;;6277322;22;19910;-75
2024/01/28 04:36:07;;;;;;;;;;;14.10;62.10;;;;;;6277009;22;20326;-75
2024/01/28 04:38:34;;;;;;;;;;;14.00;62.50;;;;;;6278154;22;19918;-75
2024/01/28 04:41:00;;;;;;;;;;;14.10;62.20;;;;;;6277155;22;19903;-75
2024/01/28 04:43:26;;;;;;;;;;;14.00;62.00;;;;;;6276885;22;19961;-75
2024/01/28 04:45:51;;;;;;;;;;;14.00;62.70;;;;;;6276994;22;19903;-75
2024/01/28 04:48:18;;;;;;;;;;;14.00;62.50;;;;;;6277004;22;19942;-75
2024/01/28 04:50:43;;;;;;;;;;;14.00;62.70;;;;;;6277080;22;20354;-74
2024/01/28 04:53:09;;;;;;;;;;;13.90;62.40;;;;;;6276970;22;19976;-70
2024/01/28 04:55:34;;;;;;;;;;;14.00;62.20;;;;;;6276838;22;19903;-70
2024/01/28 04:58:00;;;;;;;;;;;13.90;62.60;;;;;;6276649;22;19919;-70
2024/01/28 05:00:25;;;;;;;;;;;13.90;62.50;;;;;;6276628;22;20263;-70
2024/01/28 05:02:51;;;;;;;;;;;14.00;62.00;;;;;;6276783;22;19903;-71
2024/01/28 05:05:17;;;;;;;;;;;13.90;62.50;;;;;;6276507;22;20273;-70
2024/01/28 05:07:43;;;;;;;;;;;13.90;62.50;;;;;;6287657;22;20371;-70
2024/01/28 05:10:09;;;;;;;;;;;13.90;62.50;;;;;;6287129;22;19927;-70
2024/01/28 05:12:34;;;;;;;;;;;13.90;61.30;;;;;;6276521;22;20330;-70
2024/01/28 05:15:01;;;;;;;;;;;13.90;62.30;;;;;;6276791;22;19909;-70
2024/01/28 05:17:26;;;;;;;;;;;13.90;62.50;;;;;;6277153;22;20234;-70
2024/01/28 05:19:52;;;;;;;;;;;14.10;62.70;;;;;;6276745;22;19911;-70
2024/01/28 05:22:19;;;;;;;;;;;13.80;62.60;;;;;;6276828;22;19903;-70
2024/01/28 05:24:47;;;;;;;;;;;13.80;62.40;;;;;;6250017;22;20335;-70
2024/01/28 05:27:13;;;;;;;;;;;13.80;62.10;;;;;;6276672;22;19978;-70
2024/01/28 05:29:38;;;;;;;;;;;13.80;61.60;;;;;;6276411;22;19992;-70
2024/01/28 05:32:04;;;;;;;;;;;13.90;62.60;;;;;;6276558;22;19935;-70
2024/01/28 05:34:29;;;;;;;;;;;13.80;62.10;;;;;;6276235;22;19995;-70
2024/01/28 05:36:55;;;;;;;;;;;13.70;62.40;;;;;;6276980;22;19944;-70
2024/01/28 05:39:20;;;;;;;;;;;13.80;62.50;;;;;;6276443;22;19903;-70
2024/01/28 05:41:45;;;;;;;;;;;15.20;63.30;;;;;;6276436;22;20342;-70
2024/01/28 05:44:11;;;;;;;;;;;13.70;62.60;;;;;;6276795;22;20036;-70
2024/01/28 05:46:36;;;;;;;;;;;13.80;62.40;;;;;;6276343;22;19903;-70
2024/01/28 05:49:02;;;;;;;;;;;13.80;62.90;;;;;;6276418;22;19911;-70
2024/01/28 05:51:27;;;;;;;;;;;13.70;62.80;;;;;;6276942;22;19903;-70
2024/01/28 05:53:54;;;;;;;;;;;13.80;62.70;;;;;;6276162;22;19904;-70
2024/01/28 05:56:19;;;;;;;;;;;13.70;62.80;;;;;;6276227;22;19908;-70
2024/01/28 05:58:45;;;;;;;;;;;13.70;62.50;;;;;;6276273;22;19968;-70
2024/01/28 06:01:11;;;;;;;;;;;13.80;62.30;;;;;;6276429;22;20315;-70
2024/01/28 06:03:37;;;;;;;;;;;13.80;62.50;;;;;;6276108;22;20341;-70
2024/01/28 06:06:03;;;;;;;;;;;13.90;62.70;;;;;;6276654;22;19950;-70
2024/01/28 06:08:29;;;;;;;;;;;13.80;61.80;;;;;;6276195;22;19903;-70
2024/01/28 06:10:55;;;;;;;;;;;13.80;63.00;;;;;;6276801;22;19904;-70
2024/01/28 06:13:21;;;;;;;;;;;13.80;62.40;;;;;;6276175;22;19933;-70
2024/01/28 06:15:46;;;;;;;;;;;13.70;62.40;;;;;;6276219;22;20003;-70
2024/01/28 06:18:12;;;;;;;;;;;13.70;62.30;;;;;;6276173;22;19903;-70
2024/01/28 06:20:37;;;;;;;;;;;14.00;62.70;;;;;;6276120;22;19903;-70
2024/01/28 06:23:03;;;;;;;;;;;13.70;62.30;;;;;;6276498;22;19903;-70
2024/01/28 06:25:29;;;;;;;;;;;13.70;62.00;;;;;;6276465;22;19943;-70
2024/01/28 06:27:54;;;;;;;;;;;13.70;62.40;;;;;;6275998;22;19910;-70
2024/01/28 06:30:20;;;;;;;;;;;13.70;62.50;;;;;;6276067;22;19904;-70
2024/01/28 06:32:45;;;;;;;;;;;13.70;62.80;;;;;;6276508;22;19922;-70
2024/01/28 06:35:11;;;;;;;;;;;13.70;62.80;;;;;;6276028;22;20025;-70
2024/01/28 06:37:36;;;;;;;;;;;13.70;62.90;;;;;;6275932;22;19904;-70
2024/01/28 06:40:02;;;;;;;;;;;13.70;62.90;;;;;;6276651;22;19903;-70
2024/01/28 06:42:31;;;;;;;;;;;13.70;62.40;;;;;;6275927;22;19903;-70
2024/01/28 06:44:57;;;;;;;;;;;13.70;62.90;;;;;;6275582;22;19912;-70
2024/01/28 06:47:23;;;;;;;;;;;13.70;62.50;;;;;;6275905;22;19911;-70
2024/01/28 06:49:50;;;;;;;;;;;13.60;63.30;;;;;;6275871;22;19903;-70
2024/01/28 06:52:15;;;;;;;;;;;13.70;62.60;;;;;;6275719;22;19931;-70
2024/01/28 06:54:41;;;;;;;;;;;13.70;63.00;;;;;;6275843;22;19956;-83
2024/01/28 06:57:06;;;;;;;;;;;13.90;63.70;;;;;;6248575;22;19907;-70
2024/01/28 06:59:32;;;;;;;;;;;13.70;62.80;;;;;;6275775;22;19913;-70
2024/01/28 07:01:57;;;;;;;;;;;13.70;62.80;;;;;;6276047;22;19910;-70
2024/01/28 07:04:23;;;;;;;;;;;13.70;63.00;;;;;;6275641;22;19926;-70
2024/01/28 07:06:48;;;;;;;;;;;13.60;63.00;;;;;;6275391;22;19969;-70
2024/01/28 07:09:15;;;;;;;;;;;13.60;62.80;;;;;;6275577;22;19935;-70
2024/01/28 07:11:41;;;;;;;;;;;13.60;62.70;;;;;;6275768;22;19903;-70
2024/01/28 07:14:06;;;;;;;;;;;13.60;63.10;;;;;;6275681;22;20327;-75
2024/01/28 07:16:32;;;;;;;;;;;13.50;62.90;;;;;;6275666;22;19907;-75
2024/01/28 07:18:58;;;;;;;;;;;13.60;62.90;;;;;;6275697;22;20359;-75
2024/01/28 07:21:24;;;;;;;;;;;13.60;62.50;;;;;;6275486;22;19935;-75
2024/01/28 07:23:50;;;;;;;;;;;13.50;62.70;;;;;;6276005;22;19925;-75
2024/01/28 07:26:16;;;;;;;;;;;13.50;62.70;;;;;;6275973;22;19918;-75
2024/01/28 07:28:42;;;;;;;;;;;13.60;62.40;;;;;;6275182;22;19926;-74
2024/01/28 07:31:09;;;;;;;;;;;13.60;62.50;;;;;;6275919;22;19949;-73
2024/01/28 07:33:35;;;;;;;;;;;13.50;62.40;;;;;;6275694;22;19903;-74
2024/01/28 07:36:00;;;;;;;;;;;13.50;62.70;;;;;;6275453;22;19911;-76
2024/01/28 07:38:26;;;;;;;;;;;13.50;62.60;;;;;;6248203;22;19911;-75
2024/01/28 07:40:51;;;;;;;;;;;13.50;62.60;;;;;;6275373;22;19910;-74
2024/01/28 07:43:17;;;;;;;;;;;13.50;62.30;;;;;;6275103;22;19911;-73
2024/01/28 07:45:43;;;;;;;;;;;13.50;62.30;;;;;;6275160;22;20398;-73
2024/01/28 07:48:08;;;;;;;;;;;13.40;61.80;;;;;;6275077;22;19982;-69
2024/01/28 07:50:34;;;;;;;;;;;13.40;62.40;;;;;;6275153;22;20251;-75
2024/01/28 07:52:59;;;;;;;;;;;13.10;62.00;;;;;;6275227;22;19903;-77
2024/01/28 07:55:25;;;;;;;;;;;13.50;62.40;;;;;;6275111;22;20357;-73
2024/01/28 07:57:50;;;;;;;;;;;13.50;63.00;;;;;;6275675;22;19903;-76
2024/01/28 08:00:16;;;;;;;;;;;13.40;62.20;;;;;;6275043;22;19918;-74
2024/01/28 08:02:42;;;;;;;;;;;13.40;62.00;;;;;;6275519;22;20291;-76
2024/01/28 08:05:08;;;;;;;;;;;13.30;62.10;;;;;;6275502;22;19911;-77
2024/01/28 08:07:33;;;;;;;;;;;13.40;61.60;;;;;;6275350;22;19954;-75
2024/01/28 08:09:59;;;;;;;;;;;13.30;62.40;;;;;;6275226;22;19907;-73
2024/01/28 08:12:24;;;;;;;;;;;13.30;62.40;;;;;;6275133;22;20349;-75
2024/01/28 08:14:50;;;;;;;;;;;13.30;62.30;;;;;;6275165;22;19945;-75
2024/01/28 08:17:15;;;;;;;;;;;13.30;62.20;;;;;;6275112;22;19907;-75
2024/01/28 08:19:41;;;;;;;;;;;13.30;62.00;;;;;;6275120;22;19910;-76
2024/01/28 08:22:07;;;;;;;;;;;13.30;62.00;;;;;;6275274;22;19903;-75
2024/01/28 08:24:32;;;;;;;;;;;13.30;62.20;;;;;;6274951;22;19922;-74
2024/01/28 08:26:58;;;;;;;;;;;13.30;62.30;;;;;;6275792;22;19925;-76
2024/01/28 08:29:24;;;;;;;;;;;13.30;62.20;;;;;;6275208;22;19982;-76
2024/01/28 08:31:50;;;;;;;;;;;13.40;61.80;;;;;;6275151;22;19903;-77
2024/01/28 08:34:15;;;;;;;;;;;13.40;62.40;;;;;;6275653;22;19933;-74
2024/01/28 08:36:41;;;;;;;;;;;13.30;62.30;;;;;;6277509;22;19903;-75
2024/01/28 08:39:09;;;;;;;;;;;13.40;62.50;;;;;;6277532;22;19904;-77
2024/01/28 08:41:36;;;;;;;;;;;13.30;62.20;;;;;;6277390;22;19914;-76
2024/01/28 08:44:04;;;;;;;;;;;13.40;62.60;;;;;;6276827;22;19994;-76
2024/01/28 08:46:30;;;;;;;;;;;13.30;62.80;;;;;;6276983;22;19907;-76
2024/01/28 08:48:55;;;;;;;;;;;13.40;62.60;;;;;;6277442;22;19915;-76
2024/01/28 08:51:20;;;;;;;;;;;13.40;62.80;;;;;;6276876;22;19903;-76
2024/01/28 08:53:46;;;;;;;;;;;13.40;62.50;;;;;;6277364;22;19957;-76
2024/01/28 08:56:12;;;;;;;;;;;13.40;62.30;;;;;;6277420;22;19911;-76
2024/01/28 08:58:38;;;;;;;;;;;13.40;62.70;;;;;;6277310;22;20405;-76
2024/01/28 09:01:05;;;;;;;;;;;13.40;62.80;;;;;;6277029;22;19903;-77
2024/01/28 09:03:30;;;;;;;;;;;13.40;62.40;;;;;;6277058;22;19911;-76
2024/01/28 09:05:56;;;;;;;;;;;13.40;62.60;;;;;;6276529;22;20356;-76
2024/01/28 09:08:21;;;;;;;;;;;13.20;62.50;;;;;;6276818;22;19949;-76
2024/01/28 09:10:47;;;;;;;;;;;13.40;62.60;;;;;;6276455;22;19949;-76
2024/01/28 09:13:13;;;;;;;;;;;13.50;62.90;;;;;;6276665;22;19911;-76
2024/01/28 09:15:38;;;;;;;;;;;13.40;62.80;;;;;;6276659;22;19910;-76
2024/01/28 09:18:06;;;;;;;;;;;13.50;63.10;;;;;;6277343;22;19903;-76
2024/01/28 09:20:32;;;;;;;;;;;13.50;61.80;;;;;;6286635;22;19930;-76
2024/01/28 09:22:58;;;;;;;;;;;13.50;62.70;;;;;;6276821;22;19910;-76
2024/01/28 09:25:25;;;;;;;;;;;13.50;62.70;;;;;;6277278;22;19911;-76
2024/01/28 09:27:52;;;;;;;;;;;13.50;62.50;;;;;;6276878;22;19993;-76
2024/01/28 09:30:17;;;;;;;;;;;13.60;62.70;;;;;;6276526;22;20279;-76
2024/01/28 09:32:43;;;;;;;;;;;13.60;62.80;;;;;;6276284;22;19961;-76
2024/01/28 09:35:08;;;;;;;;;;;13.60;63.00;;;;;;6276433;22;19982;-77
2024/01/28 09:37:34;;;;;;;;;;;11.80;62.00;;;;;;6276530;22;19903;-77
2024/01/28 09:39:59;;;;;;;;;;;13.70;63.00;;;;;;6276396;22;19926;-76
2024/01/28 09:42:34;;;;;;;;;;;13.90;62.90;;;;;;6276504;22;19907;-77
2024/01/28 09:44:59;;;;;;;;;;;13.70;58.80;;;;;;6276001;22;19918;-76
2024/01/28 09:47:27;;;;;;;;;;;13.80;63.10;;;;;;6276306;22;19907;-77
2024/01/28 09:49:52;;;;;;;;;;;13.90;63.40;;;;;;6276507;22;19903;-76
2024/01/28 09:52:18;;;;;;;;;;;13.90;63.20;;;;;;6276835;22;19910;-71
2024/01/28 09:54:47;;;;;;;;;;;13.90;63.30;;;;;;6276009;22;19978;-71
2024/01/28 09:57:14;;;;;;;;;;;13.90;63.10;;;;;;6276181;22;19910;-71
2024/01/28 09:59:39;;;;;;;;;;;14.00;63.50;;;;;;6248880;22;20319;-71
2024/01/28 10:02:05;;;;;;;;;;;14.20;63.00;;;;;;6275778;22;19949;-71
2024/01/28 10:04:31;;;;;;;;;;;14.10;63.30;;;;;;6275936;22;19946;-71
2024/01/28 10:07:01;;;;;;;;;;;14.20;63.50;;;;;;6275765;22;19921;-71
2024/01/28 10:09:27;;;;;;;;;;;14.20;63.40;;;;;;6275753;22;20002;-71
2024/01/28 10:11:52;;;;;;;;;;;14.30;63.60;;;;;;6275798;22;19987;-71
2024/01/28 10:14:18;;;;;;;;;;;14.30;63.20;;;;;;6276034;22;19904;-71
2024/01/28 10:16:47;;;;;;;;;;;14.30;63.10;;;;;;6276593;22;19904;-71
2024/01/28 10:19:13;;;;;;;;;;;14.70;58.80;;;;;;6275923;22;20311;-71
2024/01/28 10:21:38;;;;;;;;;;;14.40;62.90;;;;;;6277130;22;19903;-70
2024/01/28 10:24:04;;;;;;;;;;;14.50;63.20;;;;;;6276365;22;19911;-70
2024/01/28 10:26:30;;;;;;;;;;;14.60;62.50;;;;;;6276133;22;19950;-70
2024/01/28 10:28:55;;;;;;;;;;;14.60;62.80;;;;;;6275728;22;19913;-69
2024/01/28 10:31:24;;;;;;;;;;;14.60;62.70;;;;;;6276048;22;19930;-69
2024/01/28 10:33:50;;;;;;;;;;;14.70;63.10;;;;;;6275662;22;19910;-69
2024/01/28 10:36:18;;;;;;;;;;;14.70;62.90;;;;;;6275757;22;19911;-69
2024/01/28 10:38:45;;;;;;;;;;;14.80;58.20;;;;;;6275712;22;19903;-69
2024/01/28 10:41:13;;;;;;;;;;;14.90;62.90;;;;;;6275692;22;19964;-69
2024/01/28 10:43:39;;;;;;;;;;;14.90;62.80;;;;;;6275597;22;19908;-69
2024/01/28 10:46:06;;;;;;;;;;;14.90;62.50;;;;;;6275411;22;19917;-69
2024/01/28 10:48:31;;;;;;;;;;;15.00;61.70;;;;;;6275821;22;19919;-69
2024/01/28 10:50:59;;;;;;;;;;;15.00;62.30;;;;;;6276130;22;19903;-69
2024/01/28 10:53:25;;;;;;;;;;;15.10;62.00;;;;;;6275560;22;19911;-69
2024/01/28 10:55:50;;;;;;;;;;;15.10;61.80;;;;;;6275294;22;19903;-69
2024/01/28 10:58:16;;;;;;;;;;;15.20;61.80;;;;;;6275253;22;20281;-69
2024/01/28 11:00:42;;;;;;;;;;;15.30;61.80;;;;;;6275626;22;19983;-69
2024/01/28 11:03:08;;;;;;;;;;;15.40;61.40;;;;;;6275516;22;19982;-69
2024/01/28 11:05:35;;;;;;;;;;;15.40;62.00;;;;;;6275227;22;19938;-69
2024/01/28 11:08:01;;;;;;;;;;;15.40;61.50;;;;;;6275878;22;20247;-69
2024/01/28 11:10:28;;;;;;;;;;;15.90;61.60;;;;;;6275413;22;19915;-69
2024/01/28 11:12:53;;;;;;;;;;;15.60;61.30;;;;;;6275410;22;20310;-69
2024/01/28 11:15:19;;;;;;;;;;;15.70;61.40;;;;;;6275448;22;19903;-69
2024/01/28 11:17:45;;;;;;;;;;;15.70;61.30;;;;;;6276077;22;20192;-79
2024/01/28 11:20:12;;;;;;;;;;;15.70;60.90;;;;;;6285707;22;19903;-78
2024/01/28 11:22:49;;;;;;;;;;;15.70;60.10;;;;;;6276076;22;20157;-78
2024/01/28 11:25:20;;;;;;;;;;;15.90;56.80;;;;;;6275258;22;20006;-78
2024/01/28 11:27:47;;;;;;;;;;;15.90;56.70;;;;;;6276068;22;20251;-78
2024/01/28 11:30:13;;;;;;;;;;;16.00;61.00;;;;;;6276041;22;19903;-77
2024/01/28 11:32:39;;;;;;;;;;;16.00;60.30;;;;;;6276134;22;19911;-78
2024/01/28 11:35:06;;;;;;;;;;;16.00;60.40;;;;;;6275430;22;19909;-79
2024/01/28 11:37:34;;;;;;;;;;;16.10;59.40;;;;;;6275631;22;19957;-78
2024/01/28 11:40:04;;;;;;;;;;;16.20;60.50;;;;;;6275853;22;20294;-77
2024/01/28 11:42:30;;;;;;;;;;;16.30;56.30;;;;;;6275668;22;19986;-78
2024/01/28 11:44:56;;;;;;;;;;;16.30;60.50;;;;;;6275339;22;19957;-78
2024/01/28 11:47:21;;;;;;;;;;;16.40;60.50;;;;;;6276066;22;19910;-77
2024/01/28 11:49:48;;;;;;;;;;;16.30;60.20;;;;;;6248168;22;20285;-75
2024/01/28 11:52:15;;;;;;;;;;;16.50;59.20;;;;;;6275580;22;19903;-75
2024/01/28 11:54:43;;;;;;;;;;;16.50;60.20;;;;;;6275366;22;20027;-78
2024/01/28 11:57:08;;;;;;;;;;;16.60;60.60;;;;;;6248651;22;19910;-76
2024/01/28 11:59:35;;;;;;;;;;;16.60;60.00;;;;;;6275397;22;19931;-69
2024/01/28 12:02:04;;;;;;;;;;;16.70;59.10;;;;;;6275225;22;19910;-70
2024/01/28 12:04:30;;;;;;;;;;;16.80;55.50;;;;;;6275232;22;19912;-70
2024/01/28 12:06:56;;;;;;;;;;;16.70;59.60;;;;;;6275101;22;19919;-70
2024/01/28 12:09:21;;;;;;;;;;;16.90;59.50;;;;;;6277000;22;20009;-70
2024/01/28 12:11:47;;;;;;;;;;;16.90;59.10;;;;;;6277450;22;20239;-75
2024/01/28 12:14:12;;;;;;;;;;;17.00;59.40;;;;;;6277108;22;19903;-71
2024/01/28 12:16:38;;;;;;;;;;;17.00;59.10;;;;;;6277602;22;19910;-71
2024/01/28 12:19:04;;;;;;;;;;;17.00;59.60;;;;;;6277208;22;19903;-72
2024/01/28 12:21:30;;;;;;;;;;;17.00;59.40;;;;;;6277040;22;20212;-71
2024/01/28 12:23:59;;;;;;;;;;;17.10;59.50;;;;;;6277667;22;19946;-71
2024/01/28 12:26:32;;;;;;;;;;;17.10;55.50;;;;;;6277281;22;19993;-71
2024/01/28 12:28:58;;;;;;;;;;;17.20;55.50;;;;;;6277190;22;19986;-72
2024/01/28 12:31:24;;;;;;;;;;;17.20;59.50;;;;;;6276915;22;19903;-74
2024/01/28 12:33:49;;;;;;;;;;;17.20;59.40;;;;;;6276897;22;19965;-71
2024/01/28 12:36:15;;;;;;;;;;;17.20;59.80;;;;;;6276862;22;20013;-71
2024/01/28 12:38:41;;;;;;;;;;;17.30;59.80;;;;;;6276887;22;19930;-71
2024/01/28 12:41:07;;;;;;;;;;;17.30;59.60;;;;;;6276961;22;19986;-73
2024/01/28 12:43:32;;;;;;;;;;;17.20;59.80;;;;;;6277493;22;20267;-73
2024/01/28 12:45:58;;;;;;;;;;;17.70;59.60;;;;;;6276808;22;19938;-72
2024/01/28 12:48:23;;;;;;;;;;;17.50;59.60;;;;;;6276742;22;19903;-72
2024/01/28 12:50:49;;;;;;;;;;;17.60;59.40;;;;;;6276822;22;19903;-72
2024/01/28 12:53:15;;;;;;;;;;;17.60;59.40;;;;;;6276811;22;20378;-71
2024/01/28 12:55:40;;;;;;;;;;;17.70;59.20;;;;;;6276737;22;20050;-71
2024/01/28 12:58:06;;;;;;;;;;;17.70;59.20;;;;;;6276770;22;20357;-70
2024/01/28 13:00:31;;;;;;;;;;;17.70;59.10;;;;;;6277279;22;19934;-71
2024/01/28 13:02:57;;;;;;;;;;;17.90;58.60;;;;;;6277259;22;19904;-73
2024/01/28 13:05:22;;;;;;;;;;;17.80;58.80;;;;;;6276220;22;19965;-69
2024/01/28 13:07:48;;;;;;;;;;;17.80;58.60;;;;;;6276642;22;20413;-70
2024/01/28 13:10:13;;;;;;;;;;;17.90;59.10;;;;;;6276534;22;19903;-70
2024/01/28 13:12:41;;;;;;;;;;;17.90;58.80;;;;;;6276600;22;19903;-70
2024/01/28 13:15:10;;;;;;;;;;;18.50;59.20;;;;;;6276572;22;19910;-70
2024/01/28 13:17:36;;;;;;;;;;;17.90;55.10;;;;;;6276381;22;20066;-69
2024/01/28 13:20:03;;;;;;;;;;;17.90;59.20;;;;;;6276665;22;19949;-69
2024/01/28 13:22:29;;;;;;;;;;;17.90;58.30;;;;;;6277004;22;19977;-69
2024/01/28 13:24:55;;;;;;;;;;;17.90;58.90;;;;;;6249100;22;19911;-69
2024/01/28 13:27:21;;;;;;;;;;;17.90;58.90;;;;;;6276803;22;19926;-69
2024/01/28 13:29:47;;;;;;;;;;;17.90;59.20;;;;;;6276089;22;19903;-68
2024/01/28 13:32:13;;;;;;;;;;;17.90;59.20;;;;;;6276474;22;19903;-68
2024/01/28 13:34:38;;;;;;;;;;;19.20;60.00;;;;;;6276394;22;19938;-70
2024/01/28 13:37:04;;;;;;;;;;;17.70;59.50;;;;;;6249255;22;19903;-68
2024/01/28 13:39:29;;;;;;;;;;;17.80;60.00;;;;;;6276304;22;19903;-68
2024/01/28 13:41:55;;;;;;;;;;;17.80;59.90;;;;;;6276306;22;19994;-68
2024/01/28 13:44:21;;;;;;;;;;;17.80;59.80;;;;;;6276160;22;19912;-69
2024/01/28 13:46:46;;;;;;;;;;;17.70;60.10;;;;;;6276201;22;19910;-68
2024/01/28 13:49:12;;;;;;;;;;;17.70;60.30;;;;;;6276240;22;19940;-68
2024/01/28 13:51:38;;;;;;;;;;;17.70;60.20;;;;;;6276218;22;19903;-70
2024/01/28 13:54:03;;;;;;;;;;;17.70;60.80;;;;;;6276222;22;19982;-69
2024/01/28 13:56:31;;;;;;;;;;;17.60;60.50;;;;;;6275978;22;19950;-68
2024/01/28 13:58:56;;;;;;;;;;;17.50;60.80;;;;;;6276385;22;19907;-70
2024/01/28 14:01:23;;;;;;;;;;;17.60;60.60;;;;;;6276167;22;20026;-70
2024/01/28 14:03:48;;;;;;;;;;;17.50;61.30;;;;;;6275969;22;19977;-70
2024/01/28 14:06:14;;;;;;;;;;;17.60;61.30;;;;;;6248724;22;20365;-70
2024/01/28 14:08:39;;;;;;;;;;;17.50;61.30;;;;;;6276006;22;19938;-70